sensor_id;sensor_type;location;lat;lon;timestamp;temperature;humidity
3402;DHT22;1714;49.756;8.610;2023-01-09T04:37:20;8.00;99.90
3402;DHT22;1714;49.756;8.610;2023-01-09T04:47:35;7.70;99.90
3402;DHT22;1714;49.756;8.610;2023-01-09T04:57:52;7.40;99.90
3402;DHT22;1714;49.756;8.610;2023-01-09T05:08:09;7.40;99.90
3402;DHT22;1714;49.756;8.610;2023-01-09T05:18:24;7.40;99.90
3402;DHT22;1714;49.756;8.610;2023-01-09T05:28:40;7.40;99.90
3402;DHT22;1714;49.756;8.610;2023-01-09T05:38:55;7.30;99.90
3402;DHT22;1714;49.756;8.610;2023-01-09T05:49:14;7.40;88.80
3402;DHT22;1714;49.756;8.610;2023-01-09T05:59:30;7.40;88.70
3402;DHT22;1714;49.756;8.610;2023-01-09T06:09:45;7.10;88.20
3402;DHT22;1714;49.756;8.610;2023-01-09T06:20:01;6.90;84.80
3402;DHT22;1714;49.756;8.610;2023-01-09T06:30:16;7.10;73.80
3402;DHT22;1714;49.756;8.610;2023-01-09T06:40:32;7.20;71.20
3402;DHT22;1714;49.756;8.610;2023-01-09T06:50:47;7.20;68.40
3402;DHT22;1714;49.756;8.610;2023-01-09T07:01:03;7.30;63.50
3402;DHT22;1714;49.756;8.610;2023-01-09T07:11:18;7.20;66.00
3402;DHT22;1714;49.756;8.610;2023-01-09T07:21:33;7.30;66.80
3402;DHT22;1714;49.756;8.610;2023-01-09T07:31:49;7.20;69.30
3402;DHT22;1714;49.756;8.610;2023-01-09T07:42:04;7.10;68.10
3402;DHT22;1714;49.756;8.610;2023-01-09T07:52:19;7.00;70.30
3402;DHT22;1714;49.756;8.610;2023-01-09T08:02:35;7.20;70.40
3402;DHT22;1714;49.756;8.610;2023-01-09T08:12:50;7.40;69.50
3402;DHT22;1714;49.756;8.610;2023-01-09T08:23:05;7.50;82.20
3402;DHT22;1714;49.756;8.610;2023-01-09T08:33:21;7.50;77.50
3402;DHT22;1714;49.756;8.610;2023-01-09T08:43:36;7.50;75.60
3402;DHT22;1714;49.756;8.610;2023-01-09T08:54:10;7.60;77.00
3402;DHT22;1714;49.756;8.610;2023-01-09T09:04:25;7.60;80.00
3402;DHT22;1714;49.756;8.610;2023-01-09T09:14:41;7.50;88.00
3402;DHT22;1714;49.756;8.610;2023-01-09T09:25:15;7.50;94.10
3402;DHT22;1714;49.756;8.610;2023-01-09T09:35:32;7.40;96.00
3402;DHT22;1714;49.756;8.610;2023-01-09T09:56:22;7.60;89.10
3402;DHT22;1714;49.756;8.610;2023-01-09T10:06:43;7.70;82.70
3402;DHT22;1714;49.756;8.610;2023-01-09T10:38:32;8.10;69.90
3402;DHT22;1714;49.756;8.610;2023-01-09T10:48:51;8.10;74.30
3402;DHT22;1714;49.756;8.610;2023-01-09T10:59:09;8.00;79.20
3402;DHT22;1714;49.756;8.610;2023-01-09T11:09:25;7.70;94.60
3402;DHT22;1714;49.756;8.610;2023-01-09T11:20:02;7.50;99.50
3402;DHT22;1714;49.756;8.610;2023-01-09T11:30:21;7.70;82.70
3402;DHT22;1714;49.756;8.610;2023-01-09T11:41:01;8.00;83.80
3402;DHT22;1714;49.756;8.610;2023-01-09T11:51:25;7.70;86.40
3402;DHT22;1714;49.756;8.610;2023-01-09T12:12:26;7.70;89.80
3402;DHT22;1714;49.756;8.610;2023-01-09T12:23:19;7.80;89.40
3402;DHT22;1714;49.756;8.610;2023-01-09T12:33:58;7.90;92.20
3402;DHT22;1714;49.756;8.610;2023-01-09T12:55:19;7.70;99.30
3402;DHT22;1714;49.756;8.610;2023-01-09T13:05:41;7.60;99.10
3402;DHT22;1714;49.756;8.610;2023-01-09T13:16:03;7.40;99.90
3402;DHT22;1714;49.756;8.610;2023-01-09T13:26:39;7.30;99.90
3402;DHT22;1714;49.756;8.610;2023-01-09T13:36:57;7.30;99.90
3402;DHT22;1714;49.756;8.610;2023-01-09T13:47:21;7.20;99.90
3402;DHT22;1714;49.756;8.610;2023-01-09T13:57:42;7.30;99.90
3402;DHT22;1714;49.756;8.610;2023-01-09T14:08:03;7.30;99.90
3402;DHT22;1714;49.756;8.610;2023-01-09T14:18:23;7.50;97.80
3402;DHT22;1714;49.756;8.610;2023-01-09T14:28:39;7.60;95.80
3402;DHT22;1714;49.756;8.610;2023-01-09T14:39:01;7.60;95.90
3402;DHT22;1714;49.756;8.610;2023-01-09T14:49:42;7.50;89.90
3402;DHT22;1714;49.756;8.610;2023-01-09T15:00:04;7.10;99.90
3402;DHT22;1714;49.756;8.610;2023-01-09T15:10:22;7.00;99.90
3402;DHT22;1714;49.756;8.610;2023-01-09T15:20:39;7.10;99.90
3402;DHT22;1714;49.756;8.610;2023-01-09T15:31:01;7.10;99.90
3402;DHT22;1714;49.756;8.610;2023-01-09T15:41:23;7.00;99.90
3402;DHT22;1714;49.756;8.610;2023-01-09T15:51:59;6.90;99.90
3402;DHT22;1714;49.756;8.610;2023-01-09T16:02:15;6.50;99.90
3402;DHT22;1714;49.756;8.610;2023-01-09T16:12:50;6.80;88.90
3402;DHT22;1714;49.756;8.610;2023-01-09T16:23:48;6.80;87.50
3402;DHT22;1714;49.756;8.610;2023-01-09T16:34:05;6.80;86.30
3402;DHT22;1714;49.756;8.610;2023-01-09T16:44:21;7.00;77.20
3402;DHT22;1714;49.756;8.610;2023-01-09T16:54:36;7.00;79.50
3402;DHT22;1714;49.756;8.610;2023-01-09T17:04:53;6.90;83.40
3402;DHT22;1714;49.756;8.610;2023-01-09T17:15:11;6.80;86.90
3402;DHT22;1714;49.756;8.610;2023-01-09T17:25:26;6.70;93.20
3402;DHT22;1714;49.756;8.610;2023-01-09T17:36:28;6.60;99.90
3402;DHT22;1714;49.756;8.610;2023-01-09T17:46:42;6.50;99.90
3402;DHT22;1714;49.756;8.610;2023-01-09T17:56:59;6.40;99.90
3402;DHT22;1714;49.756;8.610;2023-01-09T18:07:16;6.40;99.90
3402;DHT22;1714;49.756;8.610;2023-01-09T18:17:31;6.30;99.90
3402;DHT22;1714;49.756;8.610;2023-01-09T18:27:46;6.20;99.90
3402;DHT22;1714;49.756;8.610;2023-01-09T18:38:01;6.10;99.90
3402;DHT22;1714;49.756;8.610;2023-01-09T18:48:17;6.20;99.90
3402;DHT22;1714;49.756;8.610;2023-01-09T18:58:32;6.20;99.90
3402;DHT22;1714;49.756;8.610;2023-01-09T19:08:48;5.90;99.90
3402;DHT22;1714;49.756;8.610;2023-01-09T19:19:04;5.80;99.90
3402;DHT22;1714;49.756;8.610;2023-01-09T19:29:20;5.90;97.00
3402;DHT22;1714;49.756;8.610;2023-01-09T19:39:35;5.80;89.90
3402;DHT22;1714;49.756;8.610;2023-01-09T19:49:51;5.90;85.20
3402;DHT22;1714;49.756;8.610;2023-01-09T20:00:08;5.90;83.40
3402;DHT22;1714;49.756;8.610;2023-01-09T20:10:26;6.00;83.30
3402;DHT22;1714;49.756;8.610;2023-01-09T20:20:48;6.00;81.80
3402;DHT22;1714;49.756;8.610;2023-01-09T20:31:03;5.90;88.10
3402;DHT22;1714;49.756;8.610;2023-01-09T20:41:20;5.80;99.90
3402;DHT22;1714;49.756;8.610;2023-01-09T20:51:41;5.80;99.90
3402;DHT22;1714;49.756;8.610;2023-01-09T21:01:57;5.90;99.90
3402;DHT22;1714;49.756;8.610;2023-01-09T21:12:12;5.90;99.90
3402;DHT22;1714;49.756;8.610;2023-01-09T21:22:48;5.90;99.90
3402;DHT22;1714;49.756;8.610;2023-01-09T21:33:04;5.90;99.90
3402;DHT22;1714;49.756;8.610;2023-01-09T21:43:25;6.00;99.70
3402;DHT22;1714;49.756;8.610;2023-01-09T21:53:59;6.00;95.40
3402;DHT22;1714;49.756;8.610;2023-01-09T22:04:16;6.10;92.90
3402;DHT22;1714;49.756;8.610;2023-01-09T22:14:31;6.10;94.70
3402;DHT22;1714;49.756;8.610;2023-01-09T22:24:47;6.10;97.10
